sensor_id;sensor_type;location;lat;lon;timestamp;pressure;altitude;pressure_sealevel;temperature;humidity
83896;BME280;74045;42.812;74.638;2024-01-10T00:01:43;90416.09;;;5.92;61.14
83896;BME280;74045;42.812;74.638;2024-01-10T00:04:09;90422.84;;;5.97;60.95
83896;BME280;74045;42.812;74.638;2024-01-10T00:06:34;90356.94;;;5.50;61.00
83896;BME280;74045;42.812;74.638;2024-01-10T00:09:00;90321.25;;;5.25;60.68
83896;BME280;74045;42.812;74.638;2024-01-10T00:11:26;90407.97;;;5.79;60.86
83896;BME280;74045;42.812;74.638;2024-01-10T00:13:51;90422.84;;;5.90;60.76
83896;BME280;74045;42.812;74.638;2024-01-10T00:16:17;90416.16;;;5.85;60.54
83896;BME280;74045;42.812;74.638;2024-01-10T00:18:43;90419.09;;;5.91;60.15
83896;BME280;74045;42.812;74.638;2024-01-10T00:21:10;90420.53;;;6.02;60.45
83896;BME280;74045;42.812;74.638;2024-01-10T00:23:36;90352.75;;;5.59;59.79
83896;BME280;74045;42.812;74.638;2024-01-10T00:26:01;90423.03;;;6.13;59.44
83896;BME280;74045;42.812;74.638;2024-01-10T00:28:27;90404.66;;;6.13;59.04
83896;BME280;74045;42.812;74.638;2024-01-10T00:30:53;90418.72;;;6.34;57.82
83896;BME280;74045;42.812;74.638;2024-01-10T00:33:18;90408.84;;;6.45;57.64
83896;BME280;74045;42.812;74.638;2024-01-10T00:35:44;90412.78;;;6.60;56.86
83896;BME280;74045;42.812;74.638;2024-01-10T00:38:10;90408.88;;;6.76;55.93
83896;BME280;74045;42.812;74.638;2024-01-10T00:40:36;90387.47;;;6.77;55.78
83896;BME280;74045;42.812;74.638;2024-01-10T00:43:02;90388.97;;;7.05;55.79
83896;BME280;74045;42.812;74.638;2024-01-10T00:45:28;90372.41;;;7.08;54.82
83896;BME280;74045;42.812;74.638;2024-01-10T00:47:53;90390.16;;;7.28;54.51
83896;BME280;74045;42.812;74.638;2024-01-10T00:50:19;90393.34;;;7.39;54.38
83896;BME280;74045;42.812;74.638;2024-01-10T00:52:45;90388.69;;;7.50;54.33
83896;BME280;74045;42.812;74.638;2024-01-10T00:55:11;90373.69;;;7.51;54.12
83896;BME280;74045;42.812;74.638;2024-01-10T00:57:37;90365.31;;;7.56;53.74
83896;BME280;74045;42.812;74.638;2024-01-10T01:00:07;90369.00;;;7.62;53.11
83896;BME280;74045;42.812;74.638;2024-01-10T01:02:34;90378.66;;;7.69;52.80
83896;BME280;74045;42.812;74.638;2024-01-10T01:05:00;90402.41;;;7.85;53.24
83896;BME280;74045;42.812;74.638;2024-01-10T01:07:26;90392.56;;;7.89;52.79
83896;BME280;74045;42.812;74.638;2024-01-10T01:09:52;90376.97;;;7.78;52.97
83896;BME280;74045;42.812;74.638;2024-01-10T01:12:18;90360.47;;;7.78;51.80
83896;BME280;74045;42.812;74.638;2024-01-10T01:14:43;90376.41;;;7.91;52.65
83896;BME280;74045;42.812;74.638;2024-01-10T01:17:09;90377.81;;;7.95;51.83
83896;BME280;74045;42.812;74.638;2024-01-10T01:19:35;90302.44;;;7.45;51.98
83896;BME280;74045;42.812;74.638;2024-01-10T01:22:01;90384.94;;;7.98;51.16
83896;BME280;74045;42.812;74.638;2024-01-10T01:24:26;90357.38;;;7.83;51.31
83896;BME280;74045;42.812;74.638;2024-01-10T01:26:52;90303.50;;;7.48;50.77
83896;BME280;74045;42.812;74.638;2024-01-10T01:29:18;90366.50;;;7.98;51.00
83896;BME280;74045;42.812;74.638;2024-01-10T01:31:44;90383.34;;;8.01;50.59
83896;BME280;74045;42.812;74.638;2024-01-10T01:34:10;90384.13;;;8.01;50.87
83896;BME280;74045;42.812;74.638;2024-01-10T01:36:35;90319.56;;;7.53;50.85
83896;BME280;74045;42.812;74.638;2024-01-10T01:39:01;90362.44;;;7.94;50.03
83896;BME280;74045;42.812;74.638;2024-01-10T01:41:27;90363.19;;;7.94;50.11
83896;BME280;74045;42.812;74.638;2024-01-10T01:43:53;90315.91;;;7.71;49.84
83896;BME280;74045;42.812;74.638;2024-01-10T01:46:18;90383.13;;;8.15;49.97
83896;BME280;74045;42.812;74.638;2024-01-10T01:48:44;90371.09;;;8.14;49.67
83896;BME280;74045;42.812;74.638;2024-01-10T01:51:12;90402.69;;;8.34;49.20
83896;BME280;74045;42.812;74.638;2024-01-10T01:53:39;90310.22;;;7.72;49.62
83896;BME280;74045;42.812;74.638;2024-01-10T01:56:07;90322.47;;;7.82;49.51
83896;BME280;74045;42.812;74.638;2024-01-10T01:58:34;90398.06;;;8.42;48.79
83896;BME280;74045;42.812;74.638;2024-01-10T02:01:02;90405.16;;;8.45;48.69
83896;BME280;74045;42.812;74.638;2024-01-10T02:03:30;90386.72;;;8.45;48.63
83896;BME280;74045;42.812;74.638;2024-01-10T02:05:56;90389.38;;;8.45;48.74
83896;BME280;74045;42.812;74.638;2024-01-10T02:08:22;90340.69;;;8.13;48.63
83896;BME280;74045;42.812;74.638;2024-01-10T02:10:48;90381.88;;;8.43;48.89
83896;BME280;74045;42.812;74.638;2024-01-10T02:13:14;90332.19;;;8.05;48.75
83896;BME280;74045;42.812;74.638;2024-01-10T02:15:40;90314.78;;;7.92;49.32
83896;BME280;74045;42.812;74.638;2024-01-10T02:18:06;90382.69;;;8.40;48.79
83896;BME280;74045;42.812;74.638;2024-01-10T02:20:32;90401.84;;;8.41;49.46
83896;BME280;74045;42.812;74.638;2024-01-10T02:22:58;90394.69;;;8.41;49.02
83896;BME280;74045;42.812;74.638;2024-01-10T02:25:24;90382.69;;;8.40;48.97
83896;BME280;74045;42.812;74.638;2024-01-10T02:27:50;90373.88;;;8.27;48.34
83896;BME280;74045;42.812;74.638;2024-01-10T02:30:16;90393.88;;;8.44;48.21
83896;BME280;74045;42.812;74.638;2024-01-10T02:32:41;90380.56;;;8.32;48.69
83896;BME280;74045;42.812;74.638;2024-01-10T02:35:07;90383.72;;;8.46;48.96
83896;BME280;74045;42.812;74.638;2024-01-10T02:37:33;90393.50;;;8.46;48.12
83896;BME280;74045;42.812;74.638;2024-01-10T02:39:59;90399.81;;;8.48;47.83
83896;BME280;74045;42.812;74.638;2024-01-10T02:42:27;90398.69;;;8.49;47.30
83896;BME280;74045;42.812;74.638;2024-01-10T02:44:53;90402.53;;;8.65;47.48
83896;BME280;74045;42.812;74.638;2024-01-10T02:47:19;90394.16;;;8.70;47.14
83896;BME280;74045;42.812;74.638;2024-01-10T02:49:44;90391.38;;;8.77;46.93
83896;BME280;74045;42.812;74.638;2024-01-10T02:52:10;90396.09;;;8.86;46.82
83896;BME280;74045;42.812;74.638;2024-01-10T02:54:36;90398.81;;;8.82;46.49
83896;BME280;74045;42.812;74.638;2024-01-10T02:57:02;90391.09;;;8.91;46.70
83896;BME280;74045;42.812;74.638;2024-01-10T02:59:27;90399.66;;;8.95;46.67
83896;BME280;74045;42.812;74.638;2024-01-10T03:01:53;90398.78;;;9.02;47.29
83896;BME280;74045;42.812;74.638;2024-01-10T03:04:19;90403.28;;;9.02;47.19
83896;BME280;74045;42.812;74.638;2024-01-10T03:06:45;90394.06;;;8.93;47.24
83896;BME280;74045;42.812;74.638;2024-01-10T03:09:11;90383.19;;;8.91;47.12
83896;BME280;74045;42.812;74.638;2024-01-10T03:11:36;90390.75;;;8.89;47.98
83896;BME280;74045;42.812;74.638;2024-01-10T03:14:11;90389.19;;;8.92;48.20
83896;BME280;74045;42.812;74.638;2024-01-10T03:16:37;90390.41;;;8.87;47.21
83896;BME280;74045;42.812;74.638;2024-01-10T03:19:03;90382.59;;;8.84;47.62
83896;BME280;74045;42.812;74.638;2024-01-10T03:21:29;90394.56;;;8.88;46.62
83896;BME280;74045;42.812;74.638;2024-01-10T03:23:59;90380.56;;;8.91;46.85
83896;BME280;74045;42.812;74.638;2024-01-10T03:26:26;90371.16;;;8.90;46.78
83896;BME280;74045;42.812;74.638;2024-01-10T03:28:52;90393.25;;;9.13;47.20
83896;BME280;74045;42.812;74.638;2024-01-10T03:31:18;90392.53;;;9.12;46.25
83896;BME280;74045;42.812;74.638;2024-01-10T03:33:44;90375.16;;;9.15;46.56
83896;BME280;74045;42.812;74.638;2024-01-10T03:36:15;90332.16;;;8.85;46.56
83896;BME280;74045;42.812;74.638;2024-01-10T03:38:41;90400.97;;;9.40;46.66
83896;BME280;74045;42.812;74.638;2024-01-10T03:41:07;90316.03;;;8.83;46.43
83896;BME280;74045;42.812;74.638;2024-01-10T03:43:32;90392.31;;;9.39;46.27
83896;BME280;74045;42.812;74.638;2024-01-10T03:45:58;90401.38;;;9.55;45.93
83896;BME280;74045;42.812;74.638;2024-01-10T03:48:24;90413.25;;;9.63;45.94
83896;BME280;74045;42.812;74.638;2024-01-10T03:50:50;90404.03;;;9.71;45.73
83896;BME280;74045;42.812;74.638;2024-01-10T03:53:16;90403.69;;;9.85;45.73
83896;BME280;74045;42.812;74.638;2024-01-10T03:55:41;90400.56;;;9.91;45.67
83896;BME280;74045;42.812;74.638;2024-01-10T03:58:07;90380.78;;;9.82;45.76
83896;BME280;74045;42.812;74.638;2024-01-10T04:00:33;90403.53;;;10.09;45.58
83896;BME280;74045;42.812;74.638;2024-01-10T04:02:59;90398.47;;;10.15;45.05
83896;BME280;74045;42.812;74.638;2024-01-10T04:05:24;90398.22;;;10.25;45.39
83896;BME280;74045;42.812;74.638;2024-01-10T04:07:51;90400.69;;;10.33;45.24
83896;BME280;74045;42.812;74.638;2024-01-10T04:10:17;90400.53;;;10.40;45.07
83896;BME280;74045;42.812;74.638;2024-01-10T04:12:44;90409.63;;;10.51;45.06
83896;BME280;74045;42.812;74.638;2024-01-10T04:15:11;90387.78;;;10.51;44.92
83896;BME280;74045;42.812;74.638;2024-01-10T04:17:37;90395.66;;;10.67;44.91
83896;BME280;74045;42.812;74.638;2024-01-10T04:20:04;90397.25;;;10.78;44.74
83896;BME280;74045;42.812;74.638;2024-01-10T04:22:30;90388.47;;;10.81;44.46
83896;BME280;74045;42.812;74.638;2024-01-10T04:25:00;90385.75;;;10.97;44.67
83896;BME280;74045;42.812;74.638;2024-01-10T04:27:26;90399.13;;;11.06;43.99
83896;BME280;74045;42.812;74.638;2024-01-10T04:29:53;90388.09;;;11.08;44.08
83896;BME280;74045;42.812;74.638;2024-01-10T04:32:19;90389.41;;;11.29;43.46
83896;BME280;74045;42.812;74.638;2024-01-10T04:34:45;90394.38;;;11.39;43.36
83896;BME280;74045;42.812;74.638;2024-01-10T04:37:10;90373.75;;;11.47;43.15
83896;BME280;74045;42.812;74.638;2024-01-10T04:39:36;90362.63;;;11.39;42.92
83896;BME280;74045;42.812;74.638;2024-01-10T04:42:05;90374.81;;;11.62;42.72
83896;BME280;74045;42.812;74.638;2024-01-10T04:44:32;90282.19;;;11.02;42.63
83896;BME280;74045;42.812;74.638;2024-01-10T04:46:57;90367.47;;;11.79;42.56
83896;BME280;74045;42.812;74.638;2024-01-10T04:49:23;90369.19;;;11.86;42.38
83896;BME280;74045;42.812;74.638;2024-01-10T04:51:49;90343.47;;;11.74;42.20
83896;BME280;74045;42.812;74.638;2024-01-10T04:54:15;90353.38;;;11.95;42.46
83896;BME280;74045;42.812;74.638;2024-01-10T04:56:41;90330.31;;;11.83;42.45
83896;BME280;74045;42.812;74.638;2024-01-10T04:59:07;90359.91;;;12.03;41.86
83896;BME280;74045;42.812;74.638;2024-01-10T05:01:33;90276.34;;;11.46;42.16
83896;BME280;74045;42.812;74.638;2024-01-10T05:03:58;90354.63;;;12.03;41.93
83896;BME280;74045;42.812;74.638;2024-01-10T05:06:24;90347.31;;;12.07;42.23
83896;BME280;74045;42.812;74.638;2024-01-10T05:08:50;90347.06;;;12.15;42.04
83896;BME280;74045;42.812;74.638;2024-01-10T05:11:16;90326.88;;;12.08;42.24
83896;BME280;74045;42.812;74.638;2024-01-10T05:13:44;90341.88;;;12.24;43.02
83896;BME280;74045;42.812;74.638;2024-01-10T05:16:10;90335.06;;;12.23;42.18
83896;BME280;74045;42.812;74.638;2024-01-10T05:18:36;90342.59;;;12.24;42.36
83896;BME280;74045;42.812;74.638;2024-01-10T05:21:02;90242.28;;;11.70;42.07
83896;BME280;74045;42.812;74.638;2024-01-10T05:23:29;90320.44;;;12.31;42.04
83896;BME280;74045;42.812;74.638;2024-01-10T05:26:03;90332.38;;;12.36;41.87
83896;BME280;74045;42.812;74.638;2024-01-10T05:28:31;90314.41;;;12.30;42.05
83896;BME280;74045;42.812;74.638;2024-01-10T05:30:58;90323.03;;;12.44;41.75
83896;BME280;74045;42.812;74.638;2024-01-10T05:33:24;90328.19;;;12.47;42.30
83896;BME280;74045;42.812;74.638;2024-01-10T05:35:49;90300.72;;;12.54;41.60
83896;BME280;74045;42.812;74.638;2024-01-10T05:38:18;90282.13;;;12.45;41.75
83896;BME280;74045;42.812;74.638;2024-01-10T05:40:44;90302.44;;;12.70;41.69
83896;BME280;74045;42.812;74.638;2024-01-10T05:43:10;90301.50;;;12.64;41.94
83896;BME280;74045;42.812;74.638;2024-01-10T05:45:38;90290.59;;;12.62;41.82
83896;BME280;74045;42.812;74.638;2024-01-10T05:48:04;90290.75;;;12.58;42.01
83896;BME280;74045;42.812;74.638;2024-01-10T05:50:32;90303.50;;;12.50;41.56
83896;BME280;74045;42.812;74.638;2024-01-10T05:52:57;90306.38;;;12.43;42.07
83896;BME280;74045;42.812;74.638;2024-01-10T05:55:23;90278.56;;;12.17;42.26
83896;BME280;74045;42.812;74.638;2024-01-10T05:57:49;90309.09;;;12.30;41.71
83896;BME280;74045;42.812;74.638;2024-01-10T06:00:15;90318.31;;;12.26;41.48
83896;BME280;74045;42.812;74.638;2024-01-10T06:02:42;90309.06;;;12.08;41.46
83896;BME280;74045;42.812;74.638;2024-01-10T06:05:11;90315.50;;;12.20;41.72
83896;BME280;74045;42.812;74.638;2024-01-10T06:07:37;90296.88;;;11.89;41.47
83896;BME280;74045;42.812;74.638;2024-01-10T06:10:04;90296.31;;;11.94;41.65
83896;BME280;74045;42.812;74.638;2024-01-10T06:12:30;90297.97;;;12.01;42.01
83896;BME280;74045;42.812;74.638;2024-01-10T06:14:55;90302.59;;;12.09;41.37
83896;BME280;74045;42.812;74.638;2024-01-10T06:17:21;90247.22;;;11.80;41.08
83896;BME280;74045;42.812;74.638;2024-01-10T06:19:47;90304.22;;;12.29;41.33
83896;BME280;74045;42.812;74.638;2024-01-10T06:22:13;90289.28;;;12.35;42.01
83896;BME280;74045;42.812;74.638;2024-01-10T06:24:39;90296.47;;;12.57;41.30
83896;BME280;74045;42.812;74.638;2024-01-10T06:27:06;90141.75;;;11.70;40.84
83896;BME280;74045;42.812;74.638;2024-01-10T06:29:32;90263.88;;;12.69;41.14
83896;BME280;74045;42.812;74.638;2024-01-10T06:31:58;90247.09;;;12.72;41.87
83896;BME280;74045;42.812;74.638;2024-01-10T06:34:26;90209.56;;;12.42;40.30
83896;BME280;74045;42.812;74.638;2024-01-10T06:36:52;90262.19;;;12.62;40.35
83896;BME280;74045;42.812;74.638;2024-01-10T06:39:18;90246.41;;;12.49;40.17
83896;BME280;74045;42.812;74.638;2024-01-10T06:41:48;90215.94;;;12.23;41.14
83896;BME280;74045;42.812;74.638;2024-01-10T06:44:14;90240.13;;;12.34;41.13
83896;BME280;74045;42.812;74.638;2024-01-10T06:46:40;90206.53;;;12.00;40.64
83896;BME280;74045;42.812;74.638;2024-01-10T06:49:05;90239.03;;;12.22;40.56
83896;BME280;74045;42.812;74.638;2024-01-10T06:51:32;90241.97;;;12.24;40.98
83896;BME280;74045;42.812;74.638;2024-01-10T06:53:58;90247.75;;;12.32;40.82
83896;BME280;74045;42.812;74.638;2024-01-10T06:56:29;90245.41;;;12.34;41.22
83896;BME280;74045;42.812;74.638;2024-01-10T06:58:57;90244.00;;;12.42;40.96
83896;BME280;74045;42.812;74.638;2024-01-10T07:01:22;90245.41;;;12.34;41.12
83896;BME280;74045;42.812;74.638;2024-01-10T07:03:48;90256.50;;;12.42;41.08
83896;BME280;74045;42.812;74.638;2024-01-10T07:06:14;90240.38;;;12.27;40.96
83896;BME280;74045;42.812;74.638;2024-01-10T07:08:43;90157.75;;;11.66;40.91
83896;BME280;74045;42.812;74.638;2024-01-10T07:11:09;90182.13;;;11.83;40.91
83896;BME280;74045;42.812;74.638;2024-01-10T07:13:36;90251.84;;;12.24;41.15
83896;BME280;74045;42.812;74.638;2024-01-10T07:16:02;90234.78;;;12.25;41.40
83896;BME280;74045;42.812;74.638;2024-01-10T07:18:29;90172.53;;;11.76;41.30
83896;BME280;74045;42.812;74.638;2024-01-10T07:20:54;90242.44;;;12.32;41.44
83896;BME280;74045;42.812;74.638;2024-01-10T07:23:20;90223.72;;;12.26;41.26
83896;BME280;74045;42.812;74.638;2024-01-10T07:25:46;90210.94;;;12.25;41.22
83896;BME280;74045;42.812;74.638;2024-01-10T07:28:12;90165.47;;;11.95;41.56
83896;BME280;74045;42.812;74.638;2024-01-10T07:30:37;90158.94;;;11.87;41.46
83896;BME280;74045;42.812;74.638;2024-01-10T07:33:03;90226.88;;;12.34;41.14
83896;BME280;74045;42.812;74.638;2024-01-10T07:35:29;90218.06;;;12.37;40.90
83896;BME280;74045;42.812;74.638;2024-01-10T07:37:55;90206.25;;;12.29;41.17
83896;BME280;74045;42.812;74.638;2024-01-10T07:40:21;90218.38;;;12.39;41.42
83896;BME280;74045;42.812;74.638;2024-01-10T07:42:48;90205.69;;;12.34;41.50
83896;BME280;74045;42.812;74.638;2024-01-10T07:45:13;90130.88;;;11.90;41.60
83896;BME280;74045;42.812;74.638;2024-01-10T07:47:39;90132.06;;;11.89;41.72
83896;BME280;74045;42.812;74.638;2024-01-10T07:50:09;90206.78;;;12.46;42.20
83896;BME280;74045;42.812;74.638;2024-01-10T07:52:36;90194.22;;;12.37;41.68
83896;BME280;74045;42.812;74.638;2024-01-10T07:55:02;90186.75;;;12.45;41.26
83896;BME280;74045;42.812;74.638;2024-01-10T07:57:33;90185.75;;;12.51;41.13
83896;BME280;74045;42.812;74.638;2024-01-10T08:00:19;90196.41;;;12.61;41.23
83896;BME280;74045;42.812;74.638;2024-01-10T08:02:45;90212.56;;;12.53;41.50
83896;BME280;74045;42.812;74.638;2024-01-10T08:05:11;90199.69;;;12.43;41.65
83896;BME280;74045;42.812;74.638;2024-01-10T08:07:38;90204.88;;;12.46;41.87
83896;BME280;74045;42.812;74.638;2024-01-10T08:10:05;90173.59;;;12.32;42.12
83896;BME280;74045;42.812;74.638;2024-01-10T08:12:31;90134.75;;;11.98;42.29
83896;BME280;74045;42.812;74.638;2024-01-10T08:14:57;90188.94;;;12.37;42.53
83896;BME280;74045;42.812;74.638;2024-01-10T08:17:23;90186.41;;;12.34;42.88
83896;BME280;74045;42.812;74.638;2024-01-10T08:19:49;90187.78;;;12.38;42.73
83896;BME280;74045;42.812;74.638;2024-01-10T08:22:14;90187.16;;;12.34;42.84
83896;BME280;74045;42.812;74.638;2024-01-10T08:24:41;90165.47;;;12.26;42.49
83896;BME280;74045;42.812;74.638;2024-01-10T08:27:08;90178.66;;;12.39;42.65
83896;BME280;74045;42.812;74.638;2024-01-10T08:29:34;90176.88;;;12.36;42.56
83896;BME280;74045;42.812;74.638;2024-01-10T08:31:59;90152.69;;;12.25;42.71
83896;BME280;74045;42.812;74.638;2024-01-10T08:34:25;90179.31;;;12.52;42.66
83896;BME280;74045;42.812;74.638;2024-01-10T08:36:52;90117.38;;;12.19;41.68
83896;BME280;74045;42.812;74.638;2024-01-10T08:39:18;90178.75;;;12.58;41.70
83896;BME280;74045;42.812;74.638;2024-01-10T08:41:44;90166.38;;;12.64;40.99
83896;BME280;74045;42.812;74.638;2024-01-10T08:44:10;90177.00;;;12.64;41.26
83896;BME280;74045;42.812;74.638;2024-01-10T08:46:37;90144.97;;;12.49;41.08
83896;BME280;74045;42.812;74.638;2024-01-10T08:49:03;90100.69;;;12.09;40.68
83896;BME280;74045;42.812;74.638;2024-01-10T08:51:28;90179.91;;;12.57;40.67
83896;BME280;74045;42.812;74.638;2024-01-10T08:53:54;90173.44;;;12.58;40.27
83896;BME280;74045;42.812;74.638;2024-01-10T08:56:23;90168.72;;;12.62;40.70
83896;BME280;74045;42.812;74.638;2024-01-10T08:58:49;90155.91;;;12.60;40.65
83896;BME280;74045;42.812;74.638;2024-01-10T09:01:15;90145.91;;;12.55;40.73
83896;BME280;74045;42.812;74.638;2024-01-10T09:03:41;90155.72;;;12.45;40.93
83896;BME280;74045;42.812;74.638;2024-01-10T09:06:07;90155.16;;;12.50;41.23
83896;BME280;74045;42.812;74.638;2024-01-10T09:08:36;90074.50;;;12.02;40.90
83896;BME280;74045;42.812;74.638;2024-01-10T09:11:02;90156.34;;;12.49;40.82
83896;BME280;74045;42.812;74.638;2024-01-10T09:13:28;90094.34;;;12.06;41.00
83896;BME280;74045;42.812;74.638;2024-01-10T09:15:54;90153.06;;;12.45;40.93
83896;BME280;74045;42.812;74.638;2024-01-10T09:18:20;90141.31;;;12.46;40.57
83896;BME280;74045;42.812;74.638;2024-01-10T09:20:45;90152.50;;;12.50;40.82
83896;BME280;74045;42.812;74.638;2024-01-10T09:23:11;90145.75;;;12.49;40.58
83896;BME280;74045;42.812;74.638;2024-01-10T09:25:45;90142.94;;;12.53;40.70
83896;BME280;74045;42.812;74.638;2024-01-10T09:28:20;90073.16;;;11.97;40.86
83896;BME280;74045;42.812;74.638;2024-01-10T09:30:47;90123.19;;;12.45;40.83
83896;BME280;74045;42.812;74.638;2024-01-10T09:33:13;89992.69;;;11.54;41.06
83896;BME280;74045;42.812;74.638;2024-01-10T09:35:39;90053.66;;;11.82;40.89
83896;BME280;74045;42.812;74.638;2024-01-10T09:38:05;90115.59;;;12.16;40.89
83896;BME280;74045;42.812;74.638;2024-01-10T09:40:31;90105.44;;;12.14;41.12
83896;BME280;74045;42.812;74.638;2024-01-10T09:42:57;90130.63;;;12.28;41.67
83896;BME280;74045;42.812;74.638;2024-01-10T09:45:23;90120.78;;;12.28;41.92
83896;BME280;74045;42.812;74.638;2024-01-10T09:47:56;90114.31;;;12.29;42.26
83896;BME280;74045;42.812;74.638;2024-01-10T09:50:23;90096.91;;;12.19;42.24
83896;BME280;74045;42.812;74.638;2024-01-10T09:52:56;90106.56;;;12.35;42.08
83896;BME280;74045;42.812;74.638;2024-01-10T09:55:26;90091.41;;;12.36;42.24
83896;BME280;74045;42.812;74.638;2024-01-10T09:57:54;90092.69;;;12.31;42.03
83896;BME280;74045;42.812;74.638;2024-01-10T10:00:20;90109.44;;;12.28;41.73
83896;BME280;74045;42.812;74.638;2024-01-10T10:02:50;90114.75;;;12.28;41.06
83896;BME280;74045;42.812;74.638;2024-01-10T10:05:17;90124.59;;;12.27;41.30
83896;BME280;74045;42.812;74.638;2024-01-10T10:07:47;90111.19;;;12.22;41.16
83896;BME280;74045;42.812;74.638;2024-01-10T10:10:14;90145.69;;;12.40;41.34
83896;BME280;74045;42.812;74.638;2024-01-10T10:12:48;90152.75;;;12.43;41.47
83896;BME280;74045;42.812;74.638;2024-01-10T10:15:16;90135.34;;;12.24;42.32
83896;BME280;74045;42.812;74.638;2024-01-10T10:17:46;90141.47;;;12.21;42.52
83896;BME280;74045;42.812;74.638;2024-01-10T10:22:40;90156.78;;;12.17;43.79
83896;BME280;74045;42.812;74.638;2024-01-10T10:25:07;90173.16;;;12.02;43.71
83896;BME280;74045;42.812;74.638;2024-01-10T10:27:36;90173.53;;;11.92;44.13
83896;BME280;74045;42.812;74.638;2024-01-10T10:30:02;90180.66;;;11.82;44.79
83896;BME280;74045;42.812;74.638;2024-01-10T10:32:29;90168.53;;;11.72;44.89
83896;BME280;74045;42.812;74.638;2024-01-10T10:34:56;90180.09;;;11.65;44.62
83896;BME280;74045;42.812;74.638;2024-01-10T10:37:22;90111.53;;;11.14;45.14
83896;BME280;74045;42.812;74.638;2024-01-10T10:39:47;90158.78;;;11.47;45.46
83896;BME280;74045;42.812;74.638;2024-01-10T10:42:14;90078.00;;;10.89;45.69
83896;BME280;74045;42.812;74.638;2024-01-10T10:44:43;90156.94;;;11.34;45.81
83896;BME280;74045;42.812;74.638;2024-01-10T10:47:10;90158.22;;;11.30;45.70
83896;BME280;74045;42.812;74.638;2024-01-10T10:49:48;90079.00;;;10.69;45.92
83896;BME280;74045;42.812;74.638;2024-01-10T10:52:18;90164.84;;;11.12;45.86
83896;BME280;74045;42.812;74.638;2024-01-10T10:54:46;90094.16;;;10.56;46.22
83896;BME280;74045;42.812;74.638;2024-01-10T10:57:13;90034.22;;;10.05;46.66
83896;BME280;74045;42.812;74.638;2024-01-10T10:59:41;90137.50;;;10.81;45.87
83896;BME280;74045;42.812;74.638;2024-01-10T11:02:09;90156.41;;;10.92;46.18
83896;BME280;74045;42.812;74.638;2024-01-10T11:04:37;90164.66;;;10.94;46.12
83896;BME280;74045;42.812;74.638;2024-01-10T11:07:05;90153.47;;;10.90;46.37
83896;BME280;74045;42.812;74.638;2024-01-10T11:09:33;90149.03;;;10.87;45.94
83896;BME280;74045;42.812;74.638;2024-01-10T11:18:09;90156.84;;;10.78;47.04
83896;BME280;74045;42.812;74.638;2024-01-10T11:23:45;90158.78;;;10.64;47.73
83896;BME280;74045;42.812;74.638;2024-01-10T11:26:14;90078.53;;;9.98;48.25
83896;BME280;74045;42.812;74.638;2024-01-10T11:28:40;90154.88;;;10.43;47.86
83896;BME280;74045;42.812;74.638;2024-01-10T11:31:07;90116.00;;;10.05;47.60
83896;BME280;74045;42.812;74.638;2024-01-10T11:33:39;90122.53;;;10.01;47.86
83896;BME280;74045;42.812;74.638;2024-01-10T11:36:17;90171.78;;;10.33;47.98
83896;BME280;74045;42.812;74.638;2024-01-10T11:41:19;90188.94;;;10.12;49.01
83896;BME280;74045;42.812;74.638;2024-01-10T11:43:45;90179.84;;;10.00;49.20
83896;BME280;74045;42.812;74.638;2024-01-10T11:46:12;90186.22;;;9.74;48.93
83896;BME280;74045;42.812;74.638;2024-01-10T11:48:38;90203.44;;;9.78;49.41
83896;BME280;74045;42.812;74.638;2024-01-10T11:51:04;90212.19;;;9.75;48.97
83896;BME280;74045;42.812;74.638;2024-01-10T11:53:40;90141.00;;;9.17;48.86
83896;BME280;74045;42.812;74.638;2024-01-10T11:56:12;90212.78;;;9.67;49.49
83896;BME280;74045;42.812;74.638;2024-01-10T11:59:02;90210.00;;;9.57;49.21
83896;BME280;74045;42.812;74.638;2024-01-10T12:01:30;90229.13;;;9.61;49.46
83896;BME280;74045;42.812;74.638;2024-01-10T12:03:57;90241.47;;;9.64;49.74
83896;BME280;74045;42.812;74.638;2024-01-10T12:06:24;90238.09;;;9.64;49.47
83896;BME280;74045;42.812;74.638;2024-01-10T12:08:50;90240.66;;;9.51;49.53
83896;BME280;74045;42.812;74.638;2024-01-10T12:11:16;90232.84;;;9.48;49.13
83896;BME280;74045;42.812;74.638;2024-01-10T12:13:43;90259.34;;;9.57;49.08
83896;BME280;74045;42.812;74.638;2024-01-10T12:16:10;90258.34;;;9.67;48.64
83896;BME280;74045;42.812;74.638;2024-01-10T12:18:37;90219.44;;;9.42;48.90
83896;BME280;74045;42.812;74.638;2024-01-10T12:21:03;90261.22;;;9.73;48.59
83896;BME280;74045;42.812;74.638;2024-01-10T12:23:30;90278.13;;;9.75;48.62
83896;BME280;74045;42.812;74.638;2024-01-10T12:26:02;90293.84;;;9.79;48.34
83896;BME280;74045;42.812;74.638;2024-01-10T12:28:28;90272.69;;;9.66;48.50
83896;BME280;74045;42.812;74.638;2024-01-10T12:30:54;90287.94;;;9.75;48.42
83896;BME280;74045;42.812;74.638;2024-01-10T12:33:22;90314.84;;;9.82;49.05
83896;BME280;74045;42.812;74.638;2024-01-10T12:36:06;90335.22;;;9.82;48.51
83896;BME280;74045;42.812;74.638;2024-01-10T12:38:33;90330.03;;;9.78;48.47
83896;BME280;74045;42.812;74.638;2024-01-10T12:40:59;90333.50;;;9.75;48.71
83896;BME280;74045;42.812;74.638;2024-01-10T12:43:26;90265.31;;;9.28;48.16
83896;BME280;74045;42.812;74.638;2024-01-10T12:46:05;90317.59;;;9.62;48.32
83896;BME280;74045;42.812;74.638;2024-01-10T12:48:33;90341.47;;;9.72;48.00
83896;BME280;74045;42.812;74.638;2024-01-10T12:50:59;90356.25;;;9.69;47.95
83896;BME280;74045;42.812;74.638;2024-01-10T12:53:33;90385.09;;;9.76;48.50
83896;BME280;74045;42.812;74.638;2024-01-10T12:55:59;90395.63;;;9.76;47.93
83896;BME280;74045;42.812;74.638;2024-01-10T12:58:25;90376.59;;;9.69;48.53
83896;BME280;74045;42.812;74.638;2024-01-10T13:00:50;90376.03;;;9.61;48.67
83896;BME280;74045;42.812;74.638;2024-01-10T13:03:16;90409.47;;;9.64;49.61
83896;BME280;74045;42.812;74.638;2024-01-10T13:05:43;90408.16;;;9.56;49.16
83896;BME280;74045;42.812;74.638;2024-01-10T13:08:09;90405.38;;;9.47;49.39